MSC Mandraki — SZUH — position and weather

sailwx.info

Track history (hours):
 
Tides and Currents Weather Stations Pressure Air Temp Water Temp Dewpoint Dewpoint Depression Visibility Wind Speed Wind Dir Waves Ship Positions

MSC Mandraki

Last reported at 2016-May-04 11:33 UTC. Time now 2016-May-04 11:48 UTC.
Position N 38°38' W 010°05'.

Length 294 m; draft 12.5 m.

Type: Ship. MMSI: 240265000.

Date/timePositionNaut miles runAvg speedWind from/ knotsBaromVisibWave heightAir tempDewpointWater temp
2016-May-04 11:33N 38°38' W 010°05'1818.4
2016-May-04 10:33N 38°56' W 010°06'2318.6
2016-May-04 09:19N 39°20' W 010°06'60518.3
2016-May-03 00:19N 48°55' W 005°45'10517.6
2016-May-02 18:19N 49°47' W 003°25'1418.0
2016-May-02 17:33N 49°54' W 003°06'1717.3
2016-May-02 16:34N 49°60' W 002°41'10417.3
2016-May-02 10:34N 50°28' W 000°05'1919.0
2016-May-02 09:34N 50°33' E 000°24'4117.4
2016-May-02 07:13N 50°54' E 001°18'1116.2
2016-May-02 06:33N 51°02' E 001°30'1716.8
2016-May-02 05:34N 51°15' E 001°47'1515.1
2016-May-02 04:34N 51°24' E 002°07'1717.3
2016-May-02 03:34N 51°22' E 002°34'1111.4
2016-May-02 02:34N 51°25' E 002°52'1515.2
2016-May-02 01:33N 51°25' E 003°16'1413.9
2016-May-02 00:33N 51°26' E 003°38'1212.1
2016-May-01 23:33N 51°23' E 003°57'1010.0
2016-May-01 22:33N 51°23' E 004°13'4 3.1
2016-May-01 21:27N 51°21' E 004°17'1 1.3
2016-May-01 20:33N 51°20' E 004°18'1 1.0
2016-May-01 19:31N 51°20' E 004°20'0 0.0
2016-May-01 18:31N 51°20' E 004°20'0 0.0
2016-May-01 17:31N 51°20' E 004°20'0 0.0
2016-May-01 16:28N 51°20' E 004°20'0 0.0
2016-May-01 15:31N 51°20' E 004°20'0 0.0
2016-May-01 14:31N 51°20' E 004°20'0 0.0
2016-May-01 13:31N 51°20' E 004°20'0 0.0
2016-May-01 12:31N 51°20' E 004°20'0 0.0
2016-May-01 11:31N 51°19' E 004°20'0 0.0
2016-May-01 10:31N 51°20' E 004°20'0 0.0
2016-May-01 09:31N 51°20' E 004°20'0 0.0
2016-May-01 08:31N 51°20' E 004°20'0 0.0
2016-May-01 07:31N 51°20' E 004°20'0 0.0
2016-May-01 06:31N 51°20' E 004°20'0 0.0
2016-May-01 05:31N 51°20' E 004°20'0 0.0
2016-May-01 04:31N 51°20' E 004°20'0 0.0
2016-May-01 03:31N 51°20' E 004°20'0 0.0
2016-May-01 02:31N 51°20' E 004°20'0 0.0
2016-May-01 01:31N 51°20' E 004°20'0 0.0
2016-May-01 00:31N 51°20' E 004°20'0 0.0
2016-Apr-30 23:31N 51°20' E 004°20'0 0.0
2016-Apr-30 22:31N 51°20' E 004°20'0 0.0
2016-Apr-30 21:31N 51°20' E 004°20'0 0.0
2016-Apr-30 20:31N 51°20' E 004°20'0 0.0
2016-Apr-30 19:31N 51°20' E 004°20'0 0.0
2016-Apr-30 18:31N 51°20' E 004°20'0 0.0
2016-Apr-30 17:31N 51°20' E 004°20'0 0.0
2016-Apr-30 16:31N 51°20' E 004°20'0 0.0
2016-Apr-30 15:31N 51°20' E 004°20'0 0.0
2016-Apr-30 14:31N 51°20' E 004°20'0 0.0
2016-Apr-30 13:31N 51°20' E 004°20'0 0.0
2016-Apr-30 12:31N 51°20' E 004°20'0 0.0
2016-Apr-30 11:31N 51°20' E 004°20'0 0.0
2016-Apr-30 10:31N 51°20' E 004°20'0 0.0
2016-Apr-30 09:28N 51°20' E 004°20'0 0.0
2016-Apr-30 08:31N 51°20' E 004°20'0 0.0
2016-Apr-30 07:28N 51°20' E 004°20'0 0.3
2016-Apr-30 06:34N 51°20' E 004°20'2 1.8
2016-Apr-30 05:31N 51°21' E 004°17'0 0.1
2016-Apr-30 04:33N 51°21' E 004°17'6 6.0
2016-Apr-30 03:33N 51°22' E 004°08'9 9.2
2016-Apr-30 02:34N 51°21' E 003°53'1212.0
2016-Apr-30 01:33N 51°25' E 003°35'1212.1
2016-Apr-30 00:33N 51°24' E 003°16'10 9.5
2016-Apr-29 23:33N 51°30' E 003°03'1514.8
2016-Apr-29 22:33N 51°43' E 003°15'6 5.5
2016-Apr-29 21:33N 51°48' E 003°19'1 0.6
2016-Apr-29 20:33N 51°48' E 003°20'0 0.0
2016-Apr-29 19:27N 51°48' E 003°20'0 0.0
2016-Apr-29 18:18N 51°48' E 003°20'0 0.0
2016-Apr-29 17:33N 51°48' E 003°20'0 0.0
2016-Apr-29 16:30N 51°48' E 003°20'0 0.0
2016-Apr-29 15:21N 51°48' E 003°20'0 0.0
2016-Apr-29 14:15N 51°48' E 003°20'0 0.0
2016-Apr-29 13:30N 51°48' E 003°20'0 0.0
2016-Apr-29 12:30N 51°48' E 003°20'0 0.0
2016-Apr-29 11:27N 51°48' E 003°20'0 0.0
2016-Apr-29 10:15N 51°48' E 003°20'0 0.0
2016-Apr-29 06:18N 51°48' E 003°20'16 8.0
2016-Apr-29 04:22N 52°03' E 003°27'1113.4
2016-Apr-29 03:34N 52°03' E 003°44'1010.2
2016-Apr-29 02:34N 52°01' E 004°00'4 3.7
2016-Apr-29 01:31N 51°58' E 004°04'0 0.0
2016-Apr-29 00:31N 51°58' E 004°04'0 0.0
2016-Apr-28 23:31N 51°58' E 004°04'0 0.0
2016-Apr-28 22:31N 51°58' E 004°04'0 0.0
2016-Apr-28 21:31N 51°58' E 004°04'0 0.0
2016-Apr-28 20:31N 51°58' E 004°04'0 0.0
2016-Apr-28 19:31N 51°58' E 004°04'0 0.0
2016-Apr-28 18:31N 51°58' E 004°04'0 0.0
2016-Apr-28 17:31N 51°58' E 004°04'0 0.0
2016-Apr-28 16:31N 51°58' E 004°04'0 0.0
2016-Apr-28 15:31N 51°58' E 004°04'0 0.0
2016-Apr-28 14:31N 51°58' E 004°04'0 0.0
2016-Apr-28 13:31N 51°58' E 004°04'0 0.2
2016-Apr-28 12:33N 51°58' E 004°04'8 8.0
2016-Apr-28 11:33N 51°58' E 003°51'6 5.5
2016-Apr-28 10:33N 51°59' E 003°42'4 3.6
2016-Apr-28 09:30N 51°56' E 003°38'0 0.1
2016-Apr-28 08:33N 51°56' E 003°38'0 0.1
2016-Apr-28 07:33N 51°56' E 003°38'0 0.0
2016-Apr-28 06:27N 51°56' E 003°37'0 0.1
2016-Apr-28 05:30N 51°56' E 003°38'6112.3
2016-Apr-28 00:33N 51°50' E 001°60'1312.5
2016-Apr-27 23:33N 51°51' E 001°39'1010.0
2016-Apr-27 22:33N 51°56' E 001°25'5 4.6
2016-Apr-27 21:33N 51°58' E 001°18'0 0.0
2016-Apr-27 20:33N 51°58' E 001°18'0 0.0
2016-Apr-27 19:33N 51°58' E 001°18'0 0.0
2016-Apr-27 18:33N 51°58' E 001°18'0 0.0
2016-Apr-27 17:33N 51°58' E 001°18'0 0.0
2016-Apr-27 16:33N 51°58' E 001°18'0 0.0
2016-Apr-27 15:33N 51°58' E 001°18'0 0.0
2016-Apr-27 14:33N 51°58' E 001°18'0 0.0
2016-Apr-27 13:33N 51°58' E 001°18'0 0.0
2016-Apr-27 12:33N 51°58' E 001°18'0 0.0
2016-Apr-27 11:33N 51°58' E 001°18'0 0.0
2016-Apr-27 10:33N 51°58' E 001°18'0 0.0
2016-Apr-27 09:33N 51°58' E 001°18'0 0.0
2016-Apr-27 08:33N 51°58' E 001°18'0 0.0
2016-Apr-27 07:33N 51°58' E 001°18'0 0.0
2016-Apr-27 06:33N 51°58' E 001°18'0 0.0
2016-Apr-27 05:33N 51°58' E 001°18'7 7.2
2016-Apr-27 04:34N 51°56' E 001°29'1010.2
2016-Apr-27 03:33N 51°52' E 001°44'1110.6
2016-Apr-27 02:33N 51°41' E 001°49'1616.0
2016-Apr-27 01:33N 51°27' E 001°59'1414.4
2016-Apr-27 00:33N 51°13' E 001°50'1616.2
2016-Apr-26 23:34N 51°01' E 001°33'1515.1
2016-Apr-26 22:33N 50°48' E 001°22'3715.0
2016-Apr-26 20:07N 50°27' E 000°35'915.7
2016-Apr-26 19:33N 50°25' E 000°22'1615.4
2016-Apr-26 18:33N 50°19' W 000°01'1515.0
2016-Apr-26 17:33N 50°15' W 000°24'9215.2
2016-Apr-26 11:31N 49°51' W 002°41'1716.8
2016-Apr-26 10:30N 49°44' W 003°06'10817.5
2016-Apr-26 04:20N 48°49' W 005°28'62015.9
2016-Apr-24 13:26N 38°59' W 009°51'1416.4
2016-Apr-24 12:33N 38°45' W 009°51'  
Track history (hours):
 
Tides and Currents Weather Stations Pressure Air Temp Water Temp Dewpoint Dewpoint Depression Visibility Wind Speed Wind Dir Waves Ship Positions

MSC Mandraki

Last reported at 2016-May-04 11:33 UTC. Time now 2016-May-04 11:48 UTC.
Position N 38°38' W 010°05'.

Length 294 m; draft 12.5 m.

Type: Ship. MMSI: 240265000.

Date/timePositionNaut miles runAvg speedWind from/ knotsBaromVisibWave heightAir tempDewpointWater temp
2016-May-04 11:33N 38°38' W 010°05'1818.4
2016-May-04 10:33N 38°56' W 010°06'2318.6
2016-May-04 09:19N 39°20' W 010°06'60518.3
2016-May-03 00:19N 48°55' W 005°45'10517.6
2016-May-02 18:19N 49°47' W 003°25'1418.0
2016-May-02 17:33N 49°54' W 003°06'1717.3
2016-May-02 16:34N 49°60' W 002°41'10417.3
2016-May-02 10:34N 50°28' W 000°05'1919.0
2016-May-02 09:34N 50°33' E 000°24'4117.4
2016-May-02 07:13N 50°54' E 001°18'1116.2
2016-May-02 06:33N 51°02' E 001°30'1716.8
2016-May-02 05:34N 51°15' E 001°47'1515.1
2016-May-02 04:34N 51°24' E 002°07'1717.3
2016-May-02 03:34N 51°22' E 002°34'1111.4
2016-May-02 02:34N 51°25' E 002°52'1515.2
2016-May-02 01:33N 51°25' E 003°16'1413.9
2016-May-02 00:33N 51°26' E 003°38'1212.1
2016-May-01 23:33N 51°23' E 003°57'1010.0
2016-May-01 22:33N 51°23' E 004°13'4 3.1
2016-May-01 21:27N 51°21' E 004°17'1 1.3
2016-May-01 20:33N 51°20' E 004°18'1 1.0
2016-May-01 19:31N 51°20' E 004°20'0 0.0
2016-May-01 18:31N 51°20' E 004°20'0 0.0
2016-May-01 17:31N 51°20' E 004°20'0 0.0
2016-May-01 16:28N 51°20' E 004°20'0 0.0
2016-May-01 15:31N 51°20' E 004°20'0 0.0
2016-May-01 14:31N 51°20' E 004°20'0 0.0
2016-May-01 13:31N 51°20' E 004°20'0 0.0
2016-May-01 12:31N 51°20' E 004°20'0 0.0
2016-May-01 11:31N 51°19' E 004°20'0 0.0
2016-May-01 10:31N 51°20' E 004°20'0 0.0
2016-May-01 09:31N 51°20' E 004°20'0 0.0
2016-May-01 08:31N 51°20' E 004°20'0 0.0
2016-May-01 07:31N 51°20' E 004°20'0 0.0
2016-May-01 06:31N 51°20' E 004°20'0 0.0
2016-May-01 05:31N 51°20' E 004°20'0 0.0
2016-May-01 04:31N 51°20' E 004°20'0 0.0
2016-May-01 03:31N 51°20' E 004°20'0 0.0
2016-May-01 02:31N 51°20' E 004°20'0 0.0
2016-May-01 01:31N 51°20' E 004°20'0 0.0
2016-May-01 00:31N 51°20' E 004°20'0 0.0
2016-Apr-30 23:31N 51°20' E 004°20'0 0.0
2016-Apr-30 22:31N 51°20' E 004°20'0 0.0
2016-Apr-30 21:31N 51°20' E 004°20'0 0.0
2016-Apr-30 20:31N 51°20' E 004°20'0 0.0
2016-Apr-30 19:31N 51°20' E 004°20'0 0.0
2016-Apr-30 18:31N 51°20' E 004°20'0 0.0
2016-Apr-30 17:31N 51°20' E 004°20'0 0.0
2016-Apr-30 16:31N 51°20' E 004°20'0 0.0
2016-Apr-30 15:31N 51°20' E 004°20'0 0.0
2016-Apr-30 14:31N 51°20' E 004°20'0 0.0
2016-Apr-30 13:31N 51°20' E 004°20'0 0.0
2016-Apr-30 12:31N 51°20' E 004°20'0 0.0
2016-Apr-30 11:31N 51°20' E 004°20'0 0.0
2016-Apr-30 10:31N 51°20' E 004°20'0 0.0
2016-Apr-30 09:28N 51°20' E 004°20'0 0.0
2016-Apr-30 08:31N 51°20' E 004°20'0 0.0
2016-Apr-30 07:28N 51°20' E 004°20'0 0.3
2016-Apr-30 06:34N 51°20' E 004°20'2 1.8
2016-Apr-30 05:31N 51°21' E 004°17'0 0.1
2016-Apr-30 04:33N 51°21' E 004°17'6 6.0
2016-Apr-30 03:33N 51°22' E 004°08'9 9.2
2016-Apr-30 02:34N 51°21' E 003°53'1212.0
2016-Apr-30 01:33N 51°25' E 003°35'1212.1
2016-Apr-30 00:33N 51°24' E 003°16'10 9.5
2016-Apr-29 23:33N 51°30' E 003°03'1514.8
2016-Apr-29 22:33N 51°43' E 003°15'6 5.5
2016-Apr-29 21:33N 51°48' E 003°19'1 0.6
2016-Apr-29 20:33N 51°48' E 003°20'0 0.0
2016-Apr-29 19:27N 51°48' E 003°20'0 0.0
2016-Apr-29 18:18N 51°48' E 003°20'0 0.0
2016-Apr-29 17:33N 51°48' E 003°20'0 0.0
2016-Apr-29 16:30N 51°48' E 003°20'0 0.0
2016-Apr-29 15:21N 51°48' E 003°20'0 0.0
2016-Apr-29 14:15N 51°48' E 003°20'0 0.0
2016-Apr-29 13:30N 51°48' E 003°20'0 0.0
2016-Apr-29 12:30N 51°48' E 003°20'0 0.0
2016-Apr-29 11:27N 51°48' E 003°20'0 0.0
2016-Apr-29 10:15N 51°48' E 003°20'0 0.0
2016-Apr-29 06:18N 51°48' E 003°20'16 8.0
2016-Apr-29 04:22N 52°03' E 003°27'1113.4
2016-Apr-29 03:34N 52°03' E 003°44'1010.2
2016-Apr-29 02:34N 52°01' E 004°00'4 3.7
2016-Apr-29 01:31N 51°58' E 004°04'0 0.0
2016-Apr-29 00:31N 51°58' E 004°04'0 0.0
2016-Apr-28 23:31N 51°58' E 004°04'0 0.0
2016-Apr-28 22:31N 51°58' E 004°04'0 0.0
2016-Apr-28 21:31N 51°58' E 004°04'0 0.0
2016-Apr-28 20:31N 51°58' E 004°04'0 0.0
2016-Apr-28 19:31N 51°58' E 004°04'0 0.0
2016-Apr-28 18:31N 51°58' E 004°04'0 0.0
2016-Apr-28 17:31N 51°58' E 004°04'0 0.0
2016-Apr-28 16:31N 51°58' E 004°04'0 0.0
2016-Apr-28 15:31N 51°58' E 004°04'0 0.0
2016-Apr-28 14:31N 51°58' E 004°04'0 0.0
2016-Apr-28 13:31N 51°58' E 004°04'0 0.2
2016-Apr-28 12:33N 51°58' E 004°04'8 8.0
2016-Apr-28 11:33N 51°58' E 003°51'6 5.5
2016-Apr-28 10:33N 51°59' E 003°42'4 3.6
2016-Apr-28 09:30N 51°56' E 003°38'0 0.1
2016-Apr-28 08:33N 51°56' E 003°38'0 0.1
2016-Apr-28 07:33N 51°56' E 003°38'0 0.0
2016-Apr-28 06:27N 51°56' E 003°37'0 0.1
2016-Apr-28 05:30N 51°56' E 003°38'6112.3
2016-Apr-28 00:33N 51°50' E 001°60'1312.5
2016-Apr-27 23:33N 51°51' E 001°39'1010.0
2016-Apr-27 22:33N 51°56' E 001°25'5 4.6
2016-Apr-27 21:33N 51°58' E 001°18'0 0.0
2016-Apr-27 20:33N 51°58' E 001°18'0 0.0
2016-Apr-27 19:33N 51°58' E 001°18'0 0.0
2016-Apr-27 18:33N 51°58' E 001°18'0 0.0
2016-Apr-27 17:33N 51°58' E 001°18'0 0.0
2016-Apr-27 16:33N 51°58' E 001°18'0 0.0
2016-Apr-27 15:33N 51°58' E 001°18'0 0.0
2016-Apr-27 14:33N 51°58' E 001°18'0 0.0
2016-Apr-27 13:33N 51°58' E 001°18'0 0.0
2016-Apr-27 12:33N 51°58' E 001°18'0 0.0
2016-Apr-27 11:33N 51°58' E 001°18'0 0.0
2016-Apr-27 10:33N 51°58' E 001°18'0 0.0
2016-Apr-27 09:33N 51°58' E 001°18'0 0.0
2016-Apr-27 08:33N 51°58' E 001°18'0 0.0
2016-Apr-27 07:33N 51°58' E 001°18'0 0.0
2016-Apr-27 06:33N 51°58' E 001°18'0 0.0
2016-Apr-27 05:33N 51°58' E 001°18'7 7.2
2016-Apr-27 04:34N 51°56' E 001°29'1010.2
2016-Apr-27 03:33N 51°52' E 001°44'1110.6
2016-Apr-27 02:33N 51°41' E 001°49'1616.0
2016-Apr-27 01:33N 51°27' E 001°59'1414.4
2016-Apr-27 00:33N 51°13' E 001°50'1616.2
2016-Apr-26 23:34N 51°01' E 001°33'1515.1
2016-Apr-26 22:33N 50°48' E 001°22'3715.0
2016-Apr-26 20:07N 50°27' E 000°35'915.7
2016-Apr-26 19:33N 50°25' E 000°22'1615.4
2016-Apr-26 18:33N 50°19' W 000°01'1515.0
2016-Apr-26 17:33N 50°15' W 000°24'9215.2
2016-Apr-26 11:31N 49°51' W 002°41'1716.8
2016-Apr-26 10:30N 49°44' W 003°06'10817.5
2016-Apr-26 04:20N 48°49' W 005°28'62015.9
2016-Apr-24 13:26N 38°59' W 009°51'1416.4
2016-Apr-24 12:33N 38°45' W 009°51'  

Dump ship's entire track history